sensor_id;sensor_type;location;lat;lon;timestamp;temperature;humidity
68924;DHT22;55961;52.156;20.942;2023-10-08T00:00:04;10.70;86.80
68924;DHT22;55961;52.156;20.942;2023-10-08T00:03:10;10.70;86.80
68924;DHT22;55961;52.156;20.942;2023-10-08T00:05:37;10.80;86.90
68924;DHT22;55961;52.156;20.942;2023-10-08T00:08:04;10.80;87.20
68924;DHT22;55961;52.156;20.942;2023-10-08T00:10:37;10.80;87.10
68924;DHT22;55961;52.156;20.942;2023-10-08T00:13:06;10.80;87.10
68924;DHT22;55961;52.156;20.942;2023-10-08T00:15:36;10.80;87.20
68924;DHT22;55961;52.156;20.942;2023-10-08T00:18:05;10.80;87.10
68924;DHT22;55961;52.156;20.942;2023-10-08T00:20:37;10.80;87.20
68924;DHT22;55961;52.156;20.942;2023-10-08T00:23:21;10.80;87.30
68924;DHT22;55961;52.156;20.942;2023-10-08T00:25:47;10.80;87.30
68924;DHT22;55961;52.156;20.942;2023-10-08T00:28:16;10.80;87.30
68924;DHT22;55961;52.156;20.942;2023-10-08T00:30:43;10.80;87.30
68924;DHT22;55961;52.156;20.942;2023-10-08T00:33:10;10.80;87.30
68924;DHT22;55961;52.156;20.942;2023-10-08T00:35:40;10.80;87.30
68924;DHT22;55961;52.156;20.942;2023-10-08T00:38:08;10.80;87.30
68924;DHT22;55961;52.156;20.942;2023-10-08T00:40:41;10.80;87.40
68924;DHT22;55961;52.156;20.942;2023-10-08T00:43:29;10.80;87.30
68924;DHT22;55961;52.156;20.942;2023-10-08T00:45:58;10.80;87.10
68924;DHT22;55961;52.156;20.942;2023-10-08T00:48:25;10.80;87.20
68924;DHT22;55961;52.156;20.942;2023-10-08T00:50:56;10.70;87.20
68924;DHT22;55961;52.156;20.942;2023-10-08T00:53:40;10.80;87.30
68924;DHT22;55961;52.156;20.942;2023-10-08T00:56:09;10.80;87.20
68924;DHT22;55961;52.156;20.942;2023-10-08T00:58:43;10.80;87.20
68924;DHT22;55961;52.156;20.942;2023-10-08T01:01:13;10.70;87.30
68924;DHT22;55961;52.156;20.942;2023-10-08T01:03:42;10.80;87.40
68924;DHT22;55961;52.156;20.942;2023-10-08T01:06:13;10.70;87.30
68924;DHT22;55961;52.156;20.942;2023-10-08T01:08:44;10.70;87.40
68924;DHT22;55961;52.156;20.942;2023-10-08T01:11:18;10.70;87.30
68924;DHT22;55961;52.156;20.942;2023-10-08T01:13:46;10.70;87.40
68924;DHT22;55961;52.156;20.942;2023-10-08T01:16:13;10.70;87.40
68924;DHT22;55961;52.156;20.942;2023-10-08T01:18:40;10.70;87.40
68924;DHT22;55961;52.156;20.942;2023-10-08T01:21:09;10.70;87.60
68924;DHT22;55961;52.156;20.942;2023-10-08T01:23:37;10.70;87.60
68924;DHT22;55961;52.156;20.942;2023-10-08T01:26:04;10.70;87.30
68924;DHT22;55961;52.156;20.942;2023-10-08T01:28:37;10.70;87.10
68924;DHT22;55961;52.156;20.942;2023-10-08T01:31:04;10.70;87.00
68924;DHT22;55961;52.156;20.942;2023-10-08T01:33:30;10.70;87.00
68924;DHT22;55961;52.156;20.942;2023-10-08T01:36:04;10.70;86.90
68924;DHT22;55961;52.156;20.942;2023-10-08T01:38:32;10.70;87.00
68924;DHT22;55961;52.156;20.942;2023-10-08T01:41:00;10.70;86.80
68924;DHT22;55961;52.156;20.942;2023-10-08T01:43:31;10.70;86.80
68924;DHT22;55961;52.156;20.942;2023-10-08T01:45:57;10.70;86.90
68924;DHT22;55961;52.156;20.942;2023-10-08T01:48:23;10.70;86.90
68924;DHT22;55961;52.156;20.942;2023-10-08T01:51:02;10.70;86.70
68924;DHT22;55961;52.156;20.942;2023-10-08T01:53:35;10.70;86.60
68924;DHT22;55961;52.156;20.942;2023-10-08T01:56:02;10.70;86.60
68924;DHT22;55961;52.156;20.942;2023-10-08T01:58:53;10.70;86.60
68924;DHT22;55961;52.156;20.942;2023-10-08T02:01:20;10.70;86.70
68924;DHT22;55961;52.156;20.942;2023-10-08T02:03:46;10.70;86.80
68924;DHT22;55961;52.156;20.942;2023-10-08T02:06:12;10.70;86.60
68924;DHT22;55961;52.156;20.942;2023-10-08T02:08:38;10.60;86.60
68924;DHT22;55961;52.156;20.942;2023-10-08T02:11:04;10.60;86.60
68924;DHT22;55961;52.156;20.942;2023-10-08T02:13:31;10.60;86.50
68924;DHT22;55961;52.156;20.942;2023-10-08T02:15:57;10.60;86.50
68924;DHT22;55961;52.156;20.942;2023-10-08T02:18:24;10.70;86.50
68924;DHT22;55961;52.156;20.942;2023-10-08T02:20:51;10.60;86.50
68924;DHT22;55961;52.156;20.942;2023-10-08T02:23:19;10.60;86.40
68924;DHT22;55961;52.156;20.942;2023-10-08T02:25:45;10.60;86.40
68924;DHT22;55961;52.156;20.942;2023-10-08T02:28:11;10.60;86.50
68924;DHT22;55961;52.156;20.942;2023-10-08T02:30:42;10.60;86.70
68924;DHT22;55961;52.156;20.942;2023-10-08T02:33:09;10.60;86.80
68924;DHT22;55961;52.156;20.942;2023-10-08T02:35:46;10.60;86.80
68924;DHT22;55961;52.156;20.942;2023-10-08T02:38:14;10.60;86.70
68924;DHT22;55961;52.156;20.942;2023-10-08T02:40:44;10.60;86.80
68924;DHT22;55961;52.156;20.942;2023-10-08T02:43:13;10.60;86.80
68924;DHT22;55961;52.156;20.942;2023-10-08T02:45:44;10.60;86.90
68924;DHT22;55961;52.156;20.942;2023-10-08T02:48:15;10.60;87.00
68924;DHT22;55961;52.156;20.942;2023-10-08T02:50:43;10.60;87.10
68924;DHT22;55961;52.156;20.942;2023-10-08T02:53:12;10.60;87.00
68924;DHT22;55961;52.156;20.942;2023-10-08T02:55:38;10.60;87.10
68924;DHT22;55961;52.156;20.942;2023-10-08T02:58:13;10.60;87.10
68924;DHT22;55961;52.156;20.942;2023-10-08T03:00:46;10.60;87.00
68924;DHT22;55961;52.156;20.942;2023-10-08T03:03:16;10.60;87.10
68924;DHT22;55961;52.156;20.942;2023-10-08T03:05:46;10.50;87.10
68924;DHT22;55961;52.156;20.942;2023-10-08T03:08:13;10.60;87.20
68924;DHT22;55961;52.156;20.942;2023-10-08T03:10:39;10.50;87.20
68924;DHT22;55961;52.156;20.942;2023-10-08T03:13:08;10.50;87.10
68924;DHT22;55961;52.156;20.942;2023-10-08T03:15:36;10.50;86.90
68924;DHT22;55961;52.156;20.942;2023-10-08T03:18:06;10.50;87.00
68924;DHT22;55961;52.156;20.942;2023-10-08T03:20:42;10.50;87.10
68924;DHT22;55961;52.156;20.942;2023-10-08T03:23:13;10.50;87.20
68924;DHT22;55961;52.156;20.942;2023-10-08T03:25:56;10.50;87.10
68924;DHT22;55961;52.156;20.942;2023-10-08T03:28:26;10.50;87.20
68924;DHT22;55961;52.156;20.942;2023-10-08T03:30:55;10.50;87.40
68924;DHT22;55961;52.156;20.942;2023-10-08T03:33:35;10.50;87.30
68924;DHT22;55961;52.156;20.942;2023-10-08T03:36:07;10.40;87.40
68924;DHT22;55961;52.156;20.942;2023-10-08T03:38:55;10.40;87.50
68924;DHT22;55961;52.156;20.942;2023-10-08T03:41:24;10.40;87.60
68924;DHT22;55961;52.156;20.942;2023-10-08T03:43:56;10.40;87.60
68924;DHT22;55961;52.156;20.942;2023-10-08T03:46:32;10.40;87.50
68924;DHT22;55961;52.156;20.942;2023-10-08T03:49:05;10.40;87.30
68924;DHT22;55961;52.156;20.942;2023-10-08T03:51:43;10.40;87.20
68924;DHT22;55961;52.156;20.942;2023-10-08T03:54:09;10.40;87.40
68924;DHT22;55961;52.156;20.942;2023-10-08T03:56:35;10.40;87.20
68924;DHT22;55961;52.156;20.942;2023-10-08T03:59:05;10.40;87.10
68924;DHT22;55961;52.156;20.942;2023-10-08T04:01:42;10.40;86.70
68924;DHT22;55961;52.156;20.942;2023-10-08T04:04:08;10.40;86.20
68924;DHT22;55961;52.156;20.942;2023-10-08T04:06:41;10.40;85.80
68924;DHT22;55961;52.156;20.942;2023-10-08T04:09:15;10.30;85.60
68924;DHT22;55961;52.156;20.942;2023-10-08T04:11:52;10.30;85.10
68924;DHT22;55961;52.156;20.942;2023-10-08T04:14:22;10.30;84.10
68924;DHT22;55961;52.156;20.942;2023-10-08T04:16:49;10.30;83.50
68924;DHT22;55961;52.156;20.942;2023-10-08T04:19:20;10.30;82.80
68924;DHT22;55961;52.156;20.942;2023-10-08T04:21:47;10.20;82.00
68924;DHT22;55961;52.156;20.942;2023-10-08T04:24:28;10.20;80.90
68924;DHT22;55961;52.156;20.942;2023-10-08T04:26:58;10.10;79.70
68924;DHT22;55961;52.156;20.942;2023-10-08T04:29:24;10.10;79.10
68924;DHT22;55961;52.156;20.942;2023-10-08T04:31:51;10.10;76.40
68924;DHT22;55961;52.156;20.942;2023-10-08T04:34:30;10.10;75.90
68924;DHT22;55961;52.156;20.942;2023-10-08T04:36:56;10.00;75.20
68924;DHT22;55961;52.156;20.942;2023-10-08T04:39:29;10.00;74.90
68924;DHT22;55961;52.156;20.942;2023-10-08T04:41:59;9.90;73.30
68924;DHT22;55961;52.156;20.942;2023-10-08T04:44:32;9.90;72.60
68924;DHT22;55961;52.156;20.942;2023-10-08T04:46:58;9.90;72.30
68924;DHT22;55961;52.156;20.942;2023-10-08T04:49:30;9.80;71.90
68924;DHT22;55961;52.156;20.942;2023-10-08T04:51:59;9.80;71.80
68924;DHT22;55961;52.156;20.942;2023-10-08T04:54:26;9.70;71.10
68924;DHT22;55961;52.156;20.942;2023-10-08T04:57:01;9.70;70.50
68924;DHT22;55961;52.156;20.942;2023-10-08T04:59:31;9.70;70.50
68924;DHT22;55961;52.156;20.942;2023-10-08T05:02:04;9.60;70.50
68924;DHT22;55961;52.156;20.942;2023-10-08T05:05:06;9.60;69.80
68924;DHT22;55961;52.156;20.942;2023-10-08T05:07:35;9.50;69.70
68924;DHT22;55961;52.156;20.942;2023-10-08T05:10:11;9.50;69.90
68924;DHT22;55961;52.156;20.942;2023-10-08T05:12:58;9.50;70.00
68924;DHT22;55961;52.156;20.942;2023-10-08T05:15:26;9.40;70.00
68924;DHT22;55961;52.156;20.942;2023-10-08T05:18:01;9.40;70.00
68924;DHT22;55961;52.156;20.942;2023-10-08T05:20:59;9.30;70.00
68924;DHT22;55961;52.156;20.942;2023-10-08T05:23:28;9.30;70.30
68924;DHT22;55961;52.156;20.942;2023-10-08T05:25:55;9.20;70.60
68924;DHT22;55961;52.156;20.942;2023-10-08T05:28:36;9.20;70.40
68924;DHT22;55961;52.156;20.942;2023-10-08T05:31:15;9.20;70.60
68924;DHT22;55961;52.156;20.942;2023-10-08T05:33:42;9.10;70.70
68924;DHT22;55961;52.156;20.942;2023-10-08T05:36:26;9.10;70.80
68924;DHT22;55961;52.156;20.942;2023-10-08T05:39:19;9.10;71.00
68924;DHT22;55961;52.156;20.942;2023-10-08T05:41:56;9.00;71.20
68924;DHT22;55961;52.156;20.942;2023-10-08T05:44:40;9.00;71.10
68924;DHT22;55961;52.156;20.942;2023-10-08T05:47:13;9.00;71.20
68924;DHT22;55961;52.156;20.942;2023-10-08T05:50:00;9.00;71.40
68924;DHT22;55961;52.156;20.942;2023-10-08T05:52:46;9.00;71.30
68924;DHT22;55961;52.156;20.942;2023-10-08T05:55:25;9.00;71.40
68924;DHT22;55961;52.156;20.942;2023-10-08T05:58:07;9.10;71.40
68924;DHT22;55961;52.156;20.942;2023-10-08T06:00:50;9.10;70.80
68924;DHT22;55961;52.156;20.942;2023-10-08T06:03:17;9.20;70.70
68924;DHT22;55961;52.156;20.942;2023-10-08T06:06:06;9.20;70.20
68924;DHT22;55961;52.156;20.942;2023-10-08T06:08:38;9.30;69.20
68924;DHT22;55961;52.156;20.942;2023-10-08T06:11:16;9.30;69.00
68924;DHT22;55961;52.156;20.942;2023-10-08T06:14:01;9.40;69.10
68924;DHT22;55961;52.156;20.942;2023-10-08T06:16:27;9.50;68.80
68924;DHT22;55961;52.156;20.942;2023-10-08T06:19:07;9.50;68.10
68924;DHT22;55961;52.156;20.942;2023-10-08T06:21:36;9.60;67.40
68924;DHT22;55961;52.156;20.942;2023-10-08T06:24:06;9.60;66.90
68924;DHT22;55961;52.156;20.942;2023-10-08T06:26:39;9.70;65.80
68924;DHT22;55961;52.156;20.942;2023-10-08T06:29:11;9.80;65.40
68924;DHT22;55961;52.156;20.942;2023-10-08T06:31:54;9.90;64.50
68924;DHT22;55961;52.156;20.942;2023-10-08T06:34:22;9.90;63.50
68924;DHT22;55961;52.156;20.942;2023-10-08T06:36:50;9.90;63.30
68924;DHT22;55961;52.156;20.942;2023-10-08T06:39:23;10.00;63.60
68924;DHT22;55961;52.156;20.942;2023-10-08T06:42:00;10.00;62.70
68924;DHT22;55961;52.156;20.942;2023-10-08T06:44:26;10.10;62.50
68924;DHT22;55961;52.156;20.942;2023-10-08T06:46:54;10.10;61.00
68924;DHT22;55961;52.156;20.942;2023-10-08T06:49:21;10.20;61.20
68924;DHT22;55961;52.156;20.942;2023-10-08T06:51:51;10.20;61.10
68924;DHT22;55961;52.156;20.942;2023-10-08T06:54:17;10.20;61.10
68924;DHT22;55961;52.156;20.942;2023-10-08T06:56:47;10.30;60.80
68924;DHT22;55961;52.156;20.942;2023-10-08T06:59:17;10.30;59.70
68924;DHT22;55961;52.156;20.942;2023-10-08T07:01:44;10.40;58.70
68924;DHT22;55961;52.156;20.942;2023-10-08T07:04:13;10.40;58.90
68924;DHT22;55961;52.156;20.942;2023-10-08T07:06:40;10.50;58.20
68924;DHT22;55961;52.156;20.942;2023-10-08T07:09:07;10.50;58.60
68924;DHT22;55961;52.156;20.942;2023-10-08T07:11:41;10.60;58.50
68924;DHT22;55961;52.156;20.942;2023-10-08T07:14:11;10.60;57.50
68924;DHT22;55961;52.156;20.942;2023-10-08T07:16:37;10.60;57.30
68924;DHT22;55961;52.156;20.942;2023-10-08T07:19:02;10.70;56.90
68924;DHT22;55961;52.156;20.942;2023-10-08T07:21:41;10.70;56.30
68924;DHT22;55961;52.156;20.942;2023-10-08T07:24:12;10.70;56.10
68924;DHT22;55961;52.156;20.942;2023-10-08T07:26:43;10.70;55.60
68924;DHT22;55961;52.156;20.942;2023-10-08T07:29:13;10.70;55.80
68924;DHT22;55961;52.156;20.942;2023-10-08T07:31:44;10.70;56.30
68924;DHT22;55961;52.156;20.942;2023-10-08T07:34:19;10.80;55.00
68924;DHT22;55961;52.156;20.942;2023-10-08T07:36:57;10.80;54.30
68924;DHT22;55961;52.156;20.942;2023-10-08T07:39:23;10.80;54.60
68924;DHT22;55961;52.156;20.942;2023-10-08T07:42:05;10.90;54.50
68924;DHT22;55961;52.156;20.942;2023-10-08T07:44:31;11.00;55.20
68924;DHT22;55961;52.156;20.942;2023-10-08T07:46:58;11.10;54.80
68924;DHT22;55961;52.156;20.942;2023-10-08T07:49:24;11.10;54.10
68924;DHT22;55961;52.156;20.942;2023-10-08T07:51:51;11.20;53.40
68924;DHT22;55961;52.156;20.942;2023-10-08T07:54:20;11.30;52.60
68924;DHT22;55961;52.156;20.942;2023-10-08T07:56:48;11.30;52.80
68924;DHT22;55961;52.156;20.942;2023-10-08T07:59:17;11.40;51.60
68924;DHT22;55961;52.156;20.942;2023-10-08T08:01:44;11.40;51.80
68924;DHT22;55961;52.156;20.942;2023-10-08T08:04:13;11.50;51.90
68924;DHT22;55961;52.156;20.942;2023-10-08T08:06:49;11.50;51.70
68924;DHT22;55961;52.156;20.942;2023-10-08T08:09:19;11.60;51.40
68924;DHT22;55961;52.156;20.942;2023-10-08T08:11:49;11.70;51.30
68924;DHT22;55961;52.156;20.942;2023-10-08T08:14:16;11.70;51.80
68924;DHT22;55961;52.156;20.942;2023-10-08T08:16:51;11.80;51.50
68924;DHT22;55961;52.156;20.942;2023-10-08T08:19:17;11.90;50.10
68924;DHT22;55961;52.156;20.942;2023-10-08T08:21:50;12.00;50.20
68924;DHT22;55961;52.156;20.942;2023-10-08T08:24:18;12.10;49.30
68924;DHT22;55961;52.156;20.942;2023-10-08T08:26:57;12.10;49.20
68924;DHT22;55961;52.156;20.942;2023-10-08T08:30:00;12.10;48.50
68924;DHT22;55961;52.156;20.942;2023-10-08T08:32:46;12.10;48.60
68924;DHT22;55961;52.156;20.942;2023-10-08T08:35:17;12.20;48.90
68924;DHT22;55961;52.156;20.942;2023-10-08T08:37:45;12.30;48.80
68924;DHT22;55961;52.156;20.942;2023-10-08T08:40:18;12.40;49.60
68924;DHT22;55961;52.156;20.942;2023-10-08T08:42:45;12.50;47.70
68924;DHT22;55961;52.156;20.942;2023-10-08T08:45:13;12.60;46.80
68924;DHT22;55961;52.156;20.942;2023-10-08T08:47:41;12.60;47.70
68924;DHT22;55961;52.156;20.942;2023-10-08T08:50:08;12.70;46.30
68924;DHT22;55961;52.156;20.942;2023-10-08T08:52:37;12.80;45.70
68924;DHT22;55961;52.156;20.942;2023-10-08T08:55:07;12.80;45.40
68924;DHT22;55961;52.156;20.942;2023-10-08T08:57:46;12.90;45.10
68924;DHT22;55961;52.156;20.942;2023-10-08T09:00:13;12.90;46.10
68924;DHT22;55961;52.156;20.942;2023-10-08T09:02:40;13.00;45.20
68924;DHT22;55961;52.156;20.942;2023-10-08T09:05:07;13.10;44.60
68924;DHT22;55961;52.156;20.942;2023-10-08T09:07:58;13.20;45.40
68924;DHT22;55961;52.156;20.942;2023-10-08T09:10:26;13.30;44.60
68924;DHT22;55961;52.156;20.942;2023-10-08T09:12:57;13.30;44.60
68924;DHT22;55961;52.156;20.942;2023-10-08T09:15:26;13.40;44.70
68924;DHT22;55961;52.156;20.942;2023-10-08T09:17:53;13.40;44.90
68924;DHT22;55961;52.156;20.942;2023-10-08T09:20:20;13.50;45.00
68924;DHT22;55961;52.156;20.942;2023-10-08T09:23:09;13.60;44.80
68924;DHT22;55961;52.156;20.942;2023-10-08T09:25:42;13.70;44.20
68924;DHT22;55961;52.156;20.942;2023-10-08T09:28:10;13.80;42.70
68924;DHT22;55961;52.156;20.942;2023-10-08T09:30:39;13.90;42.10
68924;DHT22;55961;52.156;20.942;2023-10-08T09:33:09;13.90;42.90
68924;DHT22;55961;52.156;20.942;2023-10-08T09:35:36;14.10;42.20
68924;DHT22;55961;52.156;20.942;2023-10-08T09:38:08;14.10;42.00
68924;DHT22;55961;52.156;20.942;2023-10-08T09:40:48;14.10;40.50
68924;DHT22;55961;52.156;20.942;2023-10-08T09:43:16;14.10;41.20
68924;DHT22;55961;52.156;20.942;2023-10-08T09:45:48;14.20;41.60
68924;DHT22;55961;52.156;20.942;2023-10-08T09:48:18;14.20;41.70
68924;DHT22;55961;52.156;20.942;2023-10-08T09:50:47;14.30;40.90
68924;DHT22;55961;52.156;20.942;2023-10-08T09:53:14;14.30;41.40
68924;DHT22;55961;52.156;20.942;2023-10-08T09:55:46;14.50;40.90
68924;DHT22;55961;52.156;20.942;2023-10-08T09:58:15;14.60;40.90
68924;DHT22;55961;52.156;20.942;2023-10-08T10:00:43;14.70;39.70
68924;DHT22;55961;52.156;20.942;2023-10-08T10:03:10;14.80;39.80
68924;DHT22;55961;52.156;20.942;2023-10-08T10:05:38;14.90;40.40
68924;DHT22;55961;52.156;20.942;2023-10-08T10:08:04;14.90;39.10
68924;DHT22;55961;52.156;20.942;2023-10-08T10:10:32;14.80;39.30
68924;DHT22;55961;52.156;20.942;2023-10-08T10:13:05;14.90;39.10
68924;DHT22;55961;52.156;20.942;2023-10-08T10:15:39;14.90;39.80
68924;DHT22;55961;52.156;20.942;2023-10-08T10:18:28;15.00;39.70
68924;DHT22;55961;52.156;20.942;2023-10-08T10:23:45;15.10;39.30
68924;DHT22;55961;52.156;20.942;2023-10-08T10:31:44;15.40;36.90
68924;DHT22;55961;52.156;20.942;2023-10-08T10:34:14;15.50;37.20
68924;DHT22;55961;52.156;20.942;2023-10-08T10:36:43;15.60;37.60
68924;DHT22;55961;52.156;20.942;2023-10-08T10:39:10;15.60;38.20
68924;DHT22;55961;52.156;20.942;2023-10-08T10:41:47;15.70;37.30
68924;DHT22;55961;52.156;20.942;2023-10-08T10:44:15;15.70;36.50
68924;DHT22;55961;52.156;20.942;2023-10-08T10:46:42;15.50;36.50
68924;DHT22;55961;52.156;20.942;2023-10-08T10:49:11;15.60;37.60
68924;DHT22;55961;52.156;20.942;2023-10-08T10:51:57;15.60;38.10
68924;DHT22;55961;52.156;20.942;2023-10-08T10:54:26;15.70;37.00
68924;DHT22;55961;52.156;20.942;2023-10-08T10:57:02;15.60;37.30
68924;DHT22;55961;52.156;20.942;2023-10-08T10:59:32;15.60;37.40
68924;DHT22;55961;52.156;20.942;2023-10-08T11:02:18;15.50;37.70
68924;DHT22;55961;52.156;20.942;2023-10-08T11:04:56;15.60;37.20
68924;DHT22;55961;52.156;20.942;2023-10-08T11:07:33;15.60;36.80
68924;DHT22;55961;52.156;20.942;2023-10-08T11:10:00;15.60;36.80
68924;DHT22;55961;52.156;20.942;2023-10-08T11:12:42;15.70;35.90
68924;DHT22;55961;52.156;20.942;2023-10-08T11:15:19;15.60;35.30
68924;DHT22;55961;52.156;20.942;2023-10-08T11:17:45;15.50;36.30
68924;DHT22;55961;52.156;20.942;2023-10-08T11:20:26;15.60;35.90
68924;DHT22;55961;52.156;20.942;2023-10-08T11:22:53;15.60;36.10
68924;DHT22;55961;52.156;20.942;2023-10-08T11:25:27;15.70;35.90
68924;DHT22;55961;52.156;20.942;2023-10-08T11:27:57;15.80;35.30
68924;DHT22;55961;52.156;20.942;2023-10-08T11:30:35;15.80;34.70
68924;DHT22;55961;52.156;20.942;2023-10-08T11:33:01;15.70;34.40
68924;DHT22;55961;52.156;20.942;2023-10-08T11:35:27;15.80;35.20
68924;DHT22;55961;52.156;20.942;2023-10-08T11:37:59;15.90;34.70
68924;DHT22;55961;52.156;20.942;2023-10-08T11:40:27;15.90;34.50
68924;DHT22;55961;52.156;20.942;2023-10-08T11:43:13;15.90;34.70
68924;DHT22;55961;52.156;20.942;2023-10-08T11:45:43;15.90;34.60
68924;DHT22;55961;52.156;20.942;2023-10-08T11:48:18;15.90;34.20
68924;DHT22;55961;52.156;20.942;2023-10-08T11:50:55;15.90;34.20
68924;DHT22;55961;52.156;20.942;2023-10-08T11:53:23;16.00;33.90
68924;DHT22;55961;52.156;20.942;2023-10-08T11:55:50;16.10;33.40
68924;DHT22;55961;52.156;20.942;2023-10-08T11:58:22;16.10;33.80
68924;DHT22;55961;52.156;20.942;2023-10-08T12:01:01;16.20;33.60
68924;DHT22;55961;52.156;20.942;2023-10-08T12:03:29;16.20;33.30
68924;DHT22;55961;52.156;20.942;2023-10-08T12:05:56;16.30;33.60
68924;DHT22;55961;52.156;20.942;2023-10-08T12:08:25;16.30;32.80
68924;DHT22;55961;52.156;20.942;2023-10-08T12:10:53;16.30;33.20
68924;DHT22;55961;52.156;20.942;2023-10-08T12:13:25;16.40;31.70
68924;DHT22;55961;52.156;20.942;2023-10-08T12:15:55;16.40;32.00
68924;DHT22;55961;52.156;20.942;2023-10-08T12:18:38;16.40;31.50
68924;DHT22;55961;52.156;20.942;2023-10-08T12:21:09;16.30;31.10
68924;DHT22;55961;52.156;20.942;2023-10-08T12:23:41;16.30;31.30
68924;DHT22;55961;52.156;20.942;2023-10-08T12:26:09;16.30;31.60
68924;DHT22;55961;52.156;20.942;2023-10-08T12:28:36;16.20;31.50
68924;DHT22;55961;52.156;20.942;2023-10-08T12:31:02;16.20;31.40
68924;DHT22;55961;52.156;20.942;2023-10-08T12:33:29;16.20;31.60
68924;DHT22;55961;52.156;20.942;2023-10-08T12:35:57;16.20;32.00
68924;DHT22;55961;52.156;20.942;2023-10-08T12:38:24;16.30;31.80
68924;DHT22;55961;52.156;20.942;2023-10-08T12:40:54;16.20;31.20
68924;DHT22;55961;52.156;20.942;2023-10-08T12:43:21;16.20;31.20
68924;DHT22;55961;52.156;20.942;2023-10-08T12:45:51;16.20;31.70
68924;DHT22;55961;52.156;20.942;2023-10-08T12:48:21;16.10;31.40
68924;DHT22;55961;52.156;20.942;2023-10-08T12:50:48;16.00;32.20
68924;DHT22;55961;52.156;20.942;2023-10-08T12:53:23;16.00;32.10
68924;DHT22;55961;52.156;20.942;2023-10-08T12:55:56;16.00;32.40
68924;DHT22;55961;52.156;20.942;2023-10-08T12:58:24;15.90;32.50
68924;DHT22;55961;52.156;20.942;2023-10-08T13:00:54;15.90;32.70
68924;DHT22;55961;52.156;20.942;2023-10-08T13:03:24;15.80;33.00
68924;DHT22;55961;52.156;20.942;2023-10-08T13:05:52;15.80;32.90
68924;DHT22;55961;52.156;20.942;2023-10-08T13:08:19;15.80;33.00
68924;DHT22;55961;52.156;20.942;2023-10-08T13:10:46;15.80;32.30
68924;DHT22;55961;52.156;20.942;2023-10-08T13:13:13;15.70;31.80
68924;DHT22;55961;52.156;20.942;2023-10-08T13:15:39;15.60;32.00
68924;DHT22;55961;52.156;20.942;2023-10-08T13:18:08;15.50;32.40
68924;DHT22;55961;52.156;20.942;2023-10-08T13:20:37;15.30;32.90
68924;DHT22;55961;52.156;20.942;2023-10-08T13:23:06;15.20;33.30
68924;DHT22;55961;52.156;20.942;2023-10-08T13:25:35;15.20;33.30
68924;DHT22;55961;52.156;20.942;2023-10-08T13:28:05;15.10;33.80
68924;DHT22;55961;52.156;20.942;2023-10-08T13:30:33;15.00;33.80
68924;DHT22;55961;52.156;20.942;2023-10-08T13:32:58;14.80;33.90
68924;DHT22;55961;52.156;20.942;2023-10-08T13:35:25;14.70;34.00
68924;DHT22;55961;52.156;20.942;2023-10-08T13:37:51;14.50;34.30
68924;DHT22;55961;52.156;20.942;2023-10-08T13:40:18;14.40;34.70
68924;DHT22;55961;52.156;20.942;2023-10-08T13:42:43;14.30;34.40
68924;DHT22;55961;52.156;20.942;2023-10-08T13:45:10;14.20;35.20
68924;DHT22;55961;52.156;20.942;2023-10-08T13:47:42;14.20;35.50
68924;DHT22;55961;52.156;20.942;2023-10-08T13:50:08;14.20;35.40
68924;DHT22;55961;52.156;20.942;2023-10-08T13:52:38;14.30;35.50
68924;DHT22;55961;52.156;20.942;2023-10-08T13:55:06;14.30;34.10
68924;DHT22;55961;52.156;20.942;2023-10-08T13:57:33;14.30;34.00
68924;DHT22;55961;52.156;20.942;2023-10-08T14:00:00;14.30;34.30
68924;DHT22;55961;52.156;20.942;2023-10-08T14:02:27;14.30;34.40
68924;DHT22;55961;52.156;20.942;2023-10-08T14:04:56;14.30;34.40
68924;DHT22;55961;52.156;20.942;2023-10-08T14:07:23;14.40;34.10
68924;DHT22;55961;52.156;20.942;2023-10-08T14:09:50;14.40;34.70
68924;DHT22;55961;52.156;20.942;2023-10-08T14:12:16;14.30;34.00
68924;DHT22;55961;52.156;20.942;2023-10-08T14:14:42;14.30;34.30
68924;DHT22;55961;52.156;20.942;2023-10-08T14:17:12;14.20;34.50
68924;DHT22;55961;52.156;20.942;2023-10-08T14:19:42;14.20;35.00
68924;DHT22;55961;52.156;20.942;2023-10-08T14:22:18;14.10;34.90
68924;DHT22;55961;52.156;20.942;2023-10-08T14:24:47;14.10;35.00
68924;DHT22;55961;52.156;20.942;2023-10-08T14:27:27;14.00;34.80
68924;DHT22;55961;52.156;20.942;2023-10-08T14:29:58;14.00;35.20
68924;DHT22;55961;52.156;20.942;2023-10-08T14:32:29;13.90;33.80
68924;DHT22;55961;52.156;20.942;2023-10-08T14:34:58;13.90;33.10
68924;DHT22;55961;52.156;20.942;2023-10-08T14:37:24;13.80;32.70
68924;DHT22;55961;52.156;20.942;2023-10-08T14:40:09;13.70;33.20
68924;DHT22;55961;52.156;20.942;2023-10-08T14:42:53;13.70;33.00
68924;DHT22;55961;52.156;20.942;2023-10-08T14:45:23;13.60;33.10
68924;DHT22;55961;52.156;20.942;2023-10-08T14:47:55;13.60;33.50
68924;DHT22;55961;52.156;20.942;2023-10-08T14:50:22;13.50;33.30
68924;DHT22;55961;52.156;20.942;2023-10-08T14:52:49;13.40;33.60
68924;DHT22;55961;52.156;20.942;2023-10-08T14:55:16;13.30;34.10
68924;DHT22;55961;52.156;20.942;2023-10-08T14:57:42;13.20;34.80
68924;DHT22;55961;52.156;20.942;2023-10-08T15:00:09;13.20;34.70
68924;DHT22;55961;52.156;20.942;2023-10-08T15:02:37;13.10;34.80
68924;DHT22;55961;52.156;20.942;2023-10-08T15:05:05;13.10;34.60
68924;DHT22;55961;52.156;20.942;2023-10-08T15:07:32;13.00;34.70
68924;DHT22;55961;52.156;20.942;2023-10-08T15:09:58;13.00;34.90
68924;DHT22;55961;52.156;20.942;2023-10-08T15:12:27;12.90;35.30
68924;DHT22;55961;52.156;20.942;2023-10-08T15:14:53;12.90;35.10
68924;DHT22;55961;52.156;20.942;2023-10-08T15:17:19;12.90;35.20
68924;DHT22;55961;52.156;20.942;2023-10-08T15:19:45;12.80;35.30
68924;DHT22;55961;52.156;20.942;2023-10-08T15:22:14;12.80;35.80
68924;DHT22;55961;52.156;20.942;2023-10-08T15:24:40;12.70;36.30
68924;DHT22;55961;52.156;20.942;2023-10-08T15:27:06;12.70;36.30
68924;DHT22;55961;52.156;20.942;2023-10-08T15:29:38;12.60;36.20
68924;DHT22;55961;52.156;20.942;2023-10-08T15:32:04;12.50;36.00
68924;DHT22;55961;52.156;20.942;2023-10-08T15:34:31;12.40;36.10
68924;DHT22;55961;52.156;20.942;2023-10-08T15:36:58;12.40;36.00
68924;DHT22;55961;52.156;20.942;2023-10-08T15:39:24;12.30;36.30
68924;DHT22;55961;52.156;20.942;2023-10-08T15:41:51;12.20;36.30
68924;DHT22;55961;52.156;20.942;2023-10-08T15:44:18;12.20;36.70
68924;DHT22;55961;52.156;20.942;2023-10-08T15:46:49;12.10;37.00
68924;DHT22;55961;52.156;20.942;2023-10-08T15:49:16;12.00;36.90